Meteo Giornale » Osservazioni meteo Svizzera » Lugano

ore: 08:20 - Osservazioni Meteo Lugano
Lat. 46° 0' N Lon. 8° 58' E Alt. 273 metri s.l.m.

molto_nuvoloso Europe/Zurich

5 °C

Molto Nuvoloso

Temp. 24 Ore

-2 °C

12 °C

Nord

5.5 Km/h

Dew point 5 °C

Umidità 100 %

Visibilità  6 Km

Il sole sorge alle ore 07:58

Il sole tramonta alle ore 17:09

Data e Ora Cielo e Fenomeni T °C DP °C Um. % Pres. hPa Vis. km Vento km/h
Oggi h: 08:20 molto_nuvoloso Molto Nuvoloso 5 5 100 1014 6 N 5.5
Oggi h: 07:50 coperto_pioggia Pioggia Debole Rovescio nelle Vicinanze 5 5 100 1014 4 N 3.7
Oggi h: 07:20 coperto_pioggia Pioggia Debole 5 5 100 1014 4 N 5.5
Oggi h: 06:50 molto_nuvoloso Molto Nuvoloso 5 5 100 1014 8 N 3.7
Oggi h: 06:20 coperto_pioggia Pioggia Debole 5 4 93 1014 9 N 7.4
Oggi h: 05:50 coperto_pioggia Pioviggine 5 5 100 1015 5 N 3.7
Oggi h: 05:20 molto_nuvoloso Molto Nuvoloso 5 5 100 1015 6 N 1.8
Oggi h: 04:50 coperto Coperto 5 4 93 1015 7 N 1.8
Oggi h: 04:20 coperto Coperto 5 4 93 1015 9 N 3.7
Oggi h: 03:50 coperto Coperto 5 5 100 1016 8 N 5.5
Oggi h: 03:20 molto_nuvoloso Molto Nuvoloso 5 4 93 1016 9 N 1.8
Oggi h: 02:50 nuvoloso Nuvoloso 5 5 100 1016 6 N 3.7
Oggi h: 02:20 coperto Coperto 5 5 100 1016 10 N 3.7
Oggi h: 01:50 molto_nuvoloso Molto Nuvoloso 6 5 93 1017 10 N 3.7
Oggi h: 01:20 coperto Coperto 5 4 93 1017 10 N 1.8
Oggi h: 00:50 molto_nuvoloso Molto Nuvoloso 6 5 93 1017 10 N 1.8
Oggi h: 00:20 molto_nuvoloso Molto Nuvoloso 6 5 93 1017 10 N 1.8
Ieri h: 23:50 coperto Coperto 5 4 93 1017 10 N 5.5
Ieri h: 23:20 molto_nuvoloso Molto Nuvoloso 6 4 86 1018 10 N 3.7
Ieri h: 22:50 coperto Coperto 5 4 93 1018 10 N 1.8
Ieri h: 22:20 sereno Sereno 5 4 93 1018 10 N 3.7
Ieri h: 21:50 molto_nuvoloso Molto Nuvoloso 6 5 93 1018 8 N 9.3
Ieri h: 21:20 coperto_pioggia Pioggia Debole 6 3 81 1018 8 N 3.7
Ieri h: 20:50 molto_nuvoloso Molto Nuvoloso 6 2 75 1018 10 N 5.5
Ieri h: 20:20 molto_nuvoloso Molto Nuvoloso 7 2 70 1018 10 N 1.8
Ieri h: 19:50 molto_nuvoloso Molto Nuvoloso 7 3 75 1018 10 N 3.7
Ieri h: 19:20 molto_nuvoloso Molto Nuvoloso 8 3 70 1018 10 N 0
Ieri h: 18:50 molto_nuvoloso Molto Nuvoloso 8 2 65 1017 10 N 5.5
Ieri h: 17:50 molto_nuvoloso Molto Nuvoloso 8 1 61 1017 10 N 1.8
Ieri h: 17:20 molto_nuvoloso Molto Nuvoloso 10 1 53 1017 10 N 1.8
Ieri h: 16:50 molto_nuvoloso Molto Nuvoloso 10 1 53 1017 10 N 5.5
Ieri h: 16:20 molto_nuvoloso Molto Nuvoloso 10 0 49 1017 10 N 3.7
Ieri h: 15:50 molto_nuvoloso Molto Nuvoloso 11 0 46 1018 10 N 3.7
Ieri h: 15:20 molto_nuvoloso Molto Nuvoloso 11 1 50 1018 10 N 1.8
Ieri h: 14:50 molto_nuvoloso Molto Nuvoloso 12 2 50 1018 10 E 7.4
Ieri h: 14:20 molto_nuvoloso Molto Nuvoloso 12 2 50 1018 10 N 5.5
Ieri h: 13:50 nuvoloso Nuvoloso 12 1 46 1018 10 E 9.3
Ieri h: 13:20 nuvoloso Nuvoloso 11 -0 46 1019 10 N 5.5
Ieri h: 12:50 poco_nuvoloso Poco Nuvoloso 11 -3 37 1019 10 N 3.7
Ieri h: 12:20 poco_nuvoloso Poco Nuvoloso 9 -4 39 1020 10 N 1.8
Ieri h: 11:50 poco_nuvoloso Poco Nuvoloso 7 -4 45 1020 10 N 3.7
Ieri h: 11:20 poco_nuvoloso Poco Nuvoloso 6 -3 52 1020 10 N 3.7
Ieri h: 10:50 poco_nuvoloso Poco Nuvoloso 5 -4 52 1020 10 N 3.7
Ieri h: 10:20 poco_nuvoloso Poco Nuvoloso 2 -4 64 1020 10 N 1.8
Ieri h: 09:50 sereno Sereno 1 -4 69 1020 10 N 3.7
Ieri h: 09:20 sereno Sereno -1 -4 80 1020 10 N 1.8
Ieri h: 08:50 sereno Sereno -2 -5 79 1020 10 N 1.8
Ieri h: 08:20 sereno Sereno -2 -6 73 1020 10 N 1.8
Ieri h: 07:50 sereno Sereno -2 -6 73 1020 10 N 7.4